الصفحة الرئيسية
METAR-TAF:

METAR-TAF

مطار :

كلوفيس, نيومكسيكو, الولايات المتحدة

دائرة عرض: 34-26N, خط طول: 103-05W, ارتفاع: 1284 متر

مراقبة الطقس الحالي

تاريخ ووقت الإصدار 21 دقيقة قبل الساعة 14:37UTC
ريح 12 عقدة من الجنوب/الجنوب الشرقي
درجة الحرارة 18°درجة مئوية
الرطوبة 94%
ضغط 1017 hPa
الرؤية: 4.8 كم
ملبد بالغيوم على ارتفاع 500 قدم
غشاء

METAR: KCVN 261437Z AUTO 16012KT 3SM BR OVC005 18/17 A3004 RMK AO2 CIG 004V008

زمن: 08:58 (14:58 UTC)


TAF: مفقودة

أرصاد الطقس والتوقعات من أكثر من 4000 مطار (تقارير الطقس للمطار METAR والتنبؤ بالطقس بالمطارTAF).

المحطات المتاحة هي النقط الصفراء والحمراء على الخريطة.

حرك المؤشر فوق النقطة لمعرفة اسم المحطة.

ثم انقر لمعرفة أرصاد وتوقعات الطقس.

لتغيير الخارطة: اضغط على الأزرار الخضراء مع رمز الصليب الأسود للتكبير. على الزر الأخضر مع شرطة للتصغير، أو على الأسهم الخضراء للخرائط المجاورة.


METAR-TAF: